createdAt,value
2023-02-20T00:00:53.825Z,100983.45
2023-02-20T00:04:01.201Z,100984.86
2023-02-20T00:06:30.662Z,100985.64
2023-02-20T00:09:58.521Z,100993.48
2023-02-20T00:13:10.196Z,101006.30
2023-02-20T00:15:58.195Z,101011.38
2023-02-20T00:19:06.325Z,101014.83
2023-02-20T00:22:34.115Z,101011.36
2023-02-20T00:25:25.777Z,101014.34
2023-02-20T00:28:16.455Z,101022.50
2023-02-20T00:31:28.501Z,101038.33
2023-02-20T00:34:24.733Z,101042.26
2023-02-20T00:37:36.454Z,101043.54
2023-02-20T00:40:28.206Z,101049.34
2023-02-20T00:43:56.079Z,101057.73
2023-02-20T00:46:46.905Z,101064.55
2023-02-20T00:49:50.659Z,101072.46
2023-02-20T00:53:06.097Z,101081.91
2023-02-20T00:56:10.387Z,101089.59
2023-02-20T00:59:04.427Z,101098.08
2023-02-20T01:02:12.784Z,101099.78
2023-02-20T01:05:28.391Z,101114.02
2023-02-20T01:08:36.161Z,101119.36
2023-02-20T01:11:48.471Z,101133.58
2023-02-20T01:14:44.274Z,101136.92
2023-02-20T01:17:16.377Z,101136.98
2023-02-20T01:20:04.439Z,101136.53
2023-02-20T01:23:13.661Z,101138.77
2023-02-20T01:25:46.986Z,101140.00
2023-02-20T01:28:56.251Z,101147.63
2023-02-20T01:31:50.575Z,101156.17
2023-02-20T01:34:39.946Z,101156.58
2023-02-20T01:37:48.562Z,101156.05
2023-02-20T01:40:19.018Z,101154.73
2023-02-20T01:43:27.973Z,101165.80
2023-02-20T01:46:38.221Z,101168.01
2023-02-20T01:49:26.980Z,101176.15
2023-02-20T01:52:15.539Z,101176.06
2023-02-20T01:55:24.372Z,101177.55
2023-02-20T01:58:16.853Z,101185.87
2023-02-20T02:01:05.719Z,101195.13
2023-02-20T02:04:21.605Z,101193.95
2023-02-20T02:07:12.787Z,101198.60
2023-02-20T02:10:40.628Z,101199.73
2023-02-20T02:13:49.121Z,101201.93
2023-02-20T02:16:19.303Z,101200.86
2023-02-20T02:19:47.316Z,101202.53
2023-02-20T02:22:39.449Z,101199.65
2023-02-20T02:25:51.033Z,101204.64
2023-02-20T02:28:58.917Z,101210.47
2023-02-20T02:31:35.101Z,101215.42
2023-02-20T02:34:43.204Z,101210.95
2023-02-20T02:37:52.971Z,101219.00
2023-02-20T02:40:39.982Z,101219.81
2023-02-20T02:43:08.503Z,101215.42
2023-02-20T02:45:56.728Z,101219.73
2023-02-20T02:49:24.541Z,101227.50
2023-02-20T02:52:14.386Z,101225.73
2023-02-20T02:55:22.977Z,101226.73
2023-02-20T02:58:03.083Z,101233.69
2023-02-20T03:01:12.320Z,101245.46
2023-02-20T03:04:05.404Z,101250.09
2023-02-20T03:06:54.282Z,101251.05
2023-02-20T03:10:02.987Z,101260.59
2023-02-20T03:13:11.749Z,101264.54
2023-02-20T03:16:21.229Z,101272.54
2023-02-20T03:19:24.672Z,101277.45
2023-02-20T03:22:14.320Z,101287.83
2023-02-20T03:25:05.251Z,101288.95
2023-02-20T03:27:59.059Z,101291.82
2023-02-20T03:31:03.953Z,101302.49
2023-02-20T03:33:32.691Z,101297.20
2023-02-20T03:36:56.739Z,101296.85
2023-02-20T03:39:45.937Z,101303.02
2023-02-20T03:42:38.550Z,101307.13
2023-02-20T03:45:28.729Z,101304.02
2023-02-20T03:48:52.794Z,101307.23
2023-02-20T03:52:09.071Z,101315.98
2023-02-20T03:55:15.836Z,101321.75
2023-02-20T03:58:23.359Z,101323.62
2023-02-20T04:01:02.649Z,101330.05
2023-02-20T04:03:55.895Z,101332.94
2023-02-20T04:06:25.567Z,101334.14
2023-02-20T04:09:46.164Z,101326.45
2023-02-20T04:12:42.533Z,101323.39
2023-02-20T04:15:35.005Z,101326.18
2023-02-20T04:18:46.378Z,101328.71
2023-02-20T04:21:58.171Z,101331.14
2023-02-20T04:25:06.273Z,101335.61
2023-02-20T04:28:14.320Z,101336.02
2023-02-20T04:31:21.874Z,101340.90
2023-02-20T04:34:11.181Z,101348.82
2023-02-20T04:37:23.316Z,101353.76
2023-02-20T04:39:54.847Z,101359.58
2023-02-20T04:43:08.720Z,101364.71
2023-02-20T04:46:36.503Z,101378.25
2023-02-20T04:49:33.666Z,101382.62
2023-02-20T04:52:45.181Z,101387.73
2023-02-20T04:55:34.781Z,101394.45
2023-02-20T04:59:02.718Z,101398.77
2023-02-20T05:01:59.760Z,101401.11
2023-02-20T05:05:07.694Z,101399.31
2023-02-20T05:08:03.471Z,101402.46
2023-02-20T05:11:12.545Z,101404.73
2023-02-20T05:14:04.388Z,101398.36
2023-02-20T05:17:14.240Z,101389.52
2023-02-20T05:20:05.073Z,101393.21
2023-02-20T05:23:01.691Z,101403.38
2023-02-20T05:26:10.040Z,101408.09
2023-02-20T05:29:00.149Z,101406.98
2023-02-20T05:32:28.161Z,101414.23
2023-02-20T05:35:36.832Z,101420.63
2023-02-20T05:38:52.648Z,101425.23
2023-02-20T05:41:41.600Z,101435.38
2023-02-20T05:44:29.748Z,101437.70
2023-02-20T05:47:57.597Z,101445.90
2023-02-20T05:50:45.833Z,101446.81
2023-02-20T05:53:40.501Z,101448.64
2023-02-20T05:56:46.845Z,101449.67
2023-02-20T06:00:14.617Z,101461.73
2023-02-20T06:03:06.573Z,101463.47
2023-02-20T06:05:55.683Z,101461.91
2023-02-20T06:09:15.252Z,101461.45
2023-02-20T06:12:18.531Z,101472.55
2023-02-20T06:15:08.295Z,101479.63
2023-02-20T06:18:36.127Z,101486.19
2023-02-20T06:22:04.365Z,101486.72
2023-02-20T06:25:32.316Z,101494.95
2023-02-20T06:28:20.192Z,101495.23
2023-02-20T06:31:12.373Z,101497.21
2023-02-20T06:34:20.393Z,101498.11
2023-02-20T06:37:28.342Z,101489.58
2023-02-20T06:40:37.391Z,101493.64
2023-02-20T06:43:09.690Z,101495.38
2023-02-20T06:45:56.249Z,101493.08
2023-02-20T06:48:45.242Z,101495.47
2023-02-20T06:51:55.245Z,101494.86
2023-02-20T06:55:03.525Z,101497.41
2023-02-20T06:58:10.513Z,101504.38
2023-02-20T07:01:20.053Z,101502.94
2023-02-20T07:04:09.140Z,101501.70
2023-02-20T07:06:37.943Z,101499.43
2023-02-20T07:09:47.828Z,101503.77
2023-02-20T07:12:24.234Z,101505.76
2023-02-20T07:15:34.374Z,101504.23
2023-02-20T07:18:18.935Z,101499.51
2023-02-20T07:21:26.685Z,101498.05
2023-02-20T07:24:26.231Z,101499.93
2023-02-20T07:27:18.908Z,101503.67
2023-02-20T07:30:29.171Z,101510.90
2023-02-20T07:33:18.499Z,101523.50
2023-02-20T07:36:08.352Z,101531.84
2023-02-20T07:39:12.146Z,101531.95
2023-02-20T07:42:20.253Z,101526.50
2023-02-20T07:45:35.958Z,101525.23
2023-02-20T07:49:03.838Z,101525.09
2023-02-20T07:52:12.763Z,101526.98
2023-02-20T07:54:46.486Z,101523.02
2023-02-20T07:57:56.461Z,101518.04
2023-02-20T08:00:48.185Z,101514.00
2023-02-20T08:04:15.988Z,101509.48
2023-02-20T08:07:23.323Z,101511.23
2023-02-20T08:09:55.717Z,101510.80
2023-02-20T08:13:23.569Z,101526.02
2023-02-20T08:16:13.443Z,101530.41
2023-02-20T08:19:06.333Z,101517.50
2023-02-20T08:22:14.710Z,101519.04
2023-02-20T08:25:15.544Z,101524.73
2023-02-20T08:28:25.151Z,101527.23
2023-02-20T08:31:30.885Z,101523.50
2023-02-20T08:34:24.158Z,101520.17
2023-02-20T08:37:20.079Z,101522.20
2023-02-20T08:40:29.787Z,101516.71
2023-02-20T08:43:23.100Z,101517.27
2023-02-20T08:46:38.983Z,101514.55
2023-02-20T08:49:47.462Z,101515.63
2023-02-20T08:52:36.741Z,101515.34
2023-02-20T08:55:07.458Z,101513.64
2023-02-20T08:57:57.564Z,101507.73
2023-02-20T09:01:07.914Z,101520.20
2023-02-20T09:03:42.513Z,101518.96
2023-02-20T09:06:14.791Z,101524.47
2023-02-20T09:09:17.922Z,101523.93
2023-02-20T09:12:29.800Z,101521.48
2023-02-20T09:14:59.731Z,101522.98
2023-02-20T09:18:11.678Z,101523.02
2023-02-20T09:20:43.898Z,101527.11
2023-02-20T09:23:15.641Z,101533.02
2023-02-20T09:26:00.142Z,101531.96
2023-02-20T09:29:04.520Z,101536.51
2023-02-20T09:32:12.418Z,101539.15
2023-02-20T09:35:18.802Z,101528.30
2023-02-20T09:38:14.455Z,101520.69
2023-02-20T09:41:06.393Z,101508.63
2023-02-20T09:44:16.462Z,101499.80
2023-02-20T09:47:08.566Z,101510.47
2023-02-20T09:49:56.941Z,101516.48
2023-02-20T09:52:25.682Z,101518.75
2023-02-20T09:54:54.742Z,101523.15
2023-02-20T09:58:00.042Z,101516.87
2023-02-20T10:01:11.630Z,101508.05
2023-02-20T10:04:07.327Z,101505.30
2023-02-20T10:07:11.754Z,101506.04
2023-02-20T10:10:17.005Z,101509.20
2023-02-20T10:13:09.924Z,101505.99
2023-02-20T10:16:05.880Z,101493.52
2023-02-20T10:18:54.831Z,101489.48
2023-02-20T10:22:03.714Z,101490.94
2023-02-20T10:24:32.262Z,101488.23
2023-02-20T10:27:36.877Z,101490.32
2023-02-20T10:30:45.852Z,101481.34
2023-02-20T10:33:53.816Z,101472.27
2023-02-20T10:36:38.861Z,101478.72
2023-02-20T10:40:06.728Z,101464.88
2023-02-20T10:42:54.643Z,101456.92
2023-02-20T10:45:44.427Z,101449.94
2023-02-20T10:48:56.530Z,101449.65
2023-02-20T10:51:31.110Z,101451.95
2023-02-20T10:54:27.618Z,101448.95
2023-02-20T10:57:17.277Z,101436.55
2023-02-20T11:00:07.620Z,101439.85
2023-02-20T11:02:38.649Z,101438.95
2023-02-20T11:05:28.636Z,101440.35
2023-02-20T11:08:18.918Z,101432.98
2023-02-20T11:11:26.929Z,101424.97
2023-02-20T11:14:18.409Z,101426.67
2023-02-20T11:17:07.754Z,101431.75
2023-02-20T11:19:46.351Z,101434.70
2023-02-20T11:22:42.060Z,101433.91
2023-02-20T11:25:31.294Z,101427.94
2023-02-20T11:28:09.389Z,101430.20
2023-02-20T11:31:00.232Z,101433.21
2023-02-20T11:34:28.023Z,101421.30
2023-02-20T11:37:28.045Z,101418.30
2023-02-20T11:39:57.917Z,101419.66
2023-02-20T11:42:45.791Z,101416.02
2023-02-20T11:45:55.674Z,101408.77
2023-02-20T11:48:48.430Z,101402.25
2023-02-20T11:51:57.259Z,101400.80
2023-02-20T11:55:06.145Z,101382.73
2023-02-20T11:58:14.073Z,101387.23
2023-02-20T12:00:47.038Z,101390.16
2023-02-20T12:03:55.062Z,101390.17
2023-02-20T12:06:49.115Z,101390.68
2023-02-20T12:09:37.839Z,101389.71
2023-02-20T12:12:26.133Z,101394.09
2023-02-20T12:15:03.735Z,101397.68
2023-02-20T12:17:51.709Z,101401.23
2023-02-20T12:20:22.760Z,101397.94
2023-02-20T12:23:30.711Z,101390.81
2023-02-20T12:26:07.934Z,101393.14
2023-02-20T12:29:16.472Z,101383.27
2023-02-20T12:32:13.759Z,101372.05
2023-02-20T12:35:02.120Z,101373.77
2023-02-20T12:37:51.523Z,101363.42
2023-02-20T12:40:39.915Z,101359.42
2023-02-20T12:43:09.045Z,101356.63
2023-02-20T12:45:46.567Z,101357.13
2023-02-20T12:49:05.405Z,101346.08
2023-02-20T12:51:35.455Z,101335.34
2023-02-20T12:54:07.858Z,101335.98
2023-02-20T12:56:36.678Z,101332.81
2023-02-20T12:59:12.428Z,101332.27
2023-02-20T13:01:40.926Z,101324.75
2023-02-20T13:04:49.714Z,101327.15
2023-02-20T13:07:19.295Z,101328.67
2023-02-20T13:10:27.505Z,101322.83
2023-02-20T13:13:10.344Z,101327.13
2023-02-20T13:15:58.778Z,101330.52
2023-02-20T13:18:26.658Z,101324.12
2023-02-20T13:21:30.225Z,101308.27
2023-02-20T13:23:58.469Z,101307.59
2023-02-20T13:27:06.130Z,101300.56
2023-02-20T13:29:42.788Z,101293.83
2023-02-20T13:32:11.268Z,101283.80
2023-02-20T13:34:41.384Z,101279.45
2023-02-20T13:37:15.096Z,101278.29
2023-02-20T13:39:43.245Z,101271.05
2023-02-20T13:42:11.837Z,101267.29
2023-02-20T13:44:44.022Z,101268.34
2023-02-20T13:47:25.718Z,101267.13
2023-02-20T13:49:58.696Z,101267.55
2023-02-20T13:52:28.822Z,101264.92
2023-02-20T13:55:03.525Z,101261.02
2023-02-20T13:57:56.690Z,101254.59
2023-02-20T14:01:24.510Z,101243.98
2023-02-20T14:03:53.302Z,101233.50
2023-02-20T14:06:21.455Z,101232.89
2023-02-20T14:08:51.898Z,101224.28
2023-02-20T14:12:15.582Z,101212.41
2023-02-20T14:14:50.318Z,101209.07
2023-02-20T14:17:19.660Z,101203.16
2023-02-20T14:20:14.735Z,101203.45
2023-02-20T14:22:45.481Z,101201.92
2023-02-20T14:25:18.658Z,101203.30
2023-02-20T14:27:52.259Z,101204.03
2023-02-20T14:30:21.628Z,101207.93
2023-02-20T14:32:49.639Z,101198.92
2023-02-20T14:35:19.954Z,101199.77
2023-02-20T14:37:56.358Z,101205.21
2023-02-20T14:40:27.393Z,101205.55
2023-02-20T14:43:31.503Z,101195.99
2023-02-20T14:46:43.954Z,101193.39
2023-02-20T14:49:52.747Z,101188.55
2023-02-20T14:52:21.525Z,101182.84
2023-02-20T14:55:18.113Z,101189.85
2023-02-20T14:57:46.465Z,101187.14
2023-02-20T15:00:14.959Z,101183.92
2023-02-20T15:02:44.231Z,101173.25
2023-02-20T15:05:14.210Z,101176.09
2023-02-20T15:07:42.761Z,101172.55
2023-02-20T15:10:12.474Z,101168.97
2023-02-20T15:12:44.407Z,101173.05
2023-02-20T15:15:17.112Z,101169.10
2023-02-20T15:17:46.124Z,101158.27
2023-02-20T15:20:15.462Z,101149.34
2023-02-20T15:22:50.081Z,101149.52
2023-02-20T15:25:20.330Z,101158.01
2023-02-20T15:27:50.816Z,101156.67
2023-02-20T15:30:59.703Z,101145.17
2023-02-20T15:33:28.419Z,101146.42
2023-02-20T15:36:02.634Z,101141.10
2023-02-20T15:38:31.183Z,101139.31
2023-02-20T15:40:59.985Z,101132.27
2023-02-20T15:43:45.279Z,101128.25
2023-02-20T15:46:15.616Z,101124.56
2023-02-20T15:48:52.144Z,101124.86
2023-02-20T15:51:28.255Z,101122.98
2023-02-20T15:53:57.161Z,101117.68
2023-02-20T15:56:25.848Z,101118.10
2023-02-20T15:58:56.824Z,101111.06
2023-02-20T16:01:29.725Z,101096.13
2023-02-20T16:04:09.990Z,101083.65
2023-02-20T16:06:39.333Z,101092.53
2023-02-20T16:09:28.230Z,101103.88
2023-02-20T16:11:56.875Z,101111.41
2023-02-20T16:14:28.961Z,101119.48
2023-02-20T16:16:57.111Z,101124.02
2023-02-20T16:19:40.111Z,101123.31
2023-02-20T16:22:12.152Z,101113.69
2023-02-20T16:24:40.428Z,101108.66
2023-02-20T16:27:48.689Z,101108.61
2023-02-20T16:30:45.271Z,101114.38
2023-02-20T16:33:17.226Z,101108.55
2023-02-20T16:35:49.821Z,101106.98
2023-02-20T16:38:37.548Z,101098.52
2023-02-20T16:41:30.095Z,101098.45
2023-02-20T16:44:00.359Z,101093.98
2023-02-20T16:46:38.487Z,101101.59
2023-02-20T16:49:14.527Z,101101.30
2023-02-20T16:51:50.586Z,101100.78
2023-02-20T16:54:19.822Z,101096.46
2023-02-20T16:57:05.681Z,101097.00
2023-02-20T16:59:42.091Z,101094.29
2023-02-20T17:02:47.396Z,101086.28
2023-02-20T17:05:38.378Z,101083.80
2023-02-20T17:08:07.852Z,101082.30
2023-02-20T17:11:16.021Z,101077.52
2023-02-20T17:14:08.122Z,101074.29
2023-02-20T17:16:39.216Z,101072.14
2023-02-20T17:19:15.701Z,101067.50
2023-02-20T17:22:44.302Z,101063.77
2023-02-20T17:25:59.086Z,101067.34
2023-02-20T17:29:02.812Z,101057.53
2023-02-20T17:31:51.264Z,101046.30
2023-02-20T17:34:44.382Z,101040.17
2023-02-20T17:37:34.981Z,101035.54
2023-02-20T17:40:43.921Z,101032.25
2023-02-20T17:43:53.036Z,101025.90
2023-02-20T17:46:41.878Z,101023.77
2023-02-20T17:49:10.241Z,101025.25
2023-02-20T17:51:58.761Z,101020.80
2023-02-20T17:55:22.268Z,101018.10
2023-02-20T17:57:51.079Z,101017.77
2023-02-20T18:00:28.495Z,101019.66
2023-02-20T18:02:59.234Z,101021.83
2023-02-20T18:06:09.205Z,101012.88
2023-02-20T18:08:57.728Z,101010.80
2023-02-20T18:11:30.069Z,101006.01
2023-02-20T18:14:57.889Z,100997.43
2023-02-20T18:17:30.971Z,100993.23
2023-02-20T18:20:40.802Z,100988.45
2023-02-20T18:24:08.747Z,100989.39
2023-02-20T18:26:36.911Z,100983.64
2023-02-20T18:29:45.349Z,100990.94
2023-02-20T18:32:39.343Z,100989.05
2023-02-20T18:35:31.449Z,100990.41
2023-02-20T18:38:22.048Z,100984.21
2023-02-20T18:41:50.196Z,100979.33
2023-02-20T18:44:46.569Z,100978.27
2023-02-20T18:47:56.224Z,100976.34
2023-02-20T18:51:25.311Z,100975.02
2023-02-20T18:54:32.725Z,100973.33
2023-02-20T18:57:09.283Z,100972.16
2023-02-20T18:59:58.433Z,100965.02
2023-02-20T19:03:14.460Z,100957.52
2023-02-20T19:06:42.327Z,100964.36
2023-02-20T19:10:10.504Z,100960.35
2023-02-20T19:13:38.342Z,100951.42
2023-02-20T19:17:06.139Z,100949.55
2023-02-20T19:20:30.162Z,100944.21
2023-02-20T19:23:58.654Z,100939.14
2023-02-20T19:27:23.034Z,100939.51
2023-02-20T19:30:32.294Z,100933.79
2023-02-20T19:33:47.995Z,100935.29
2023-02-20T19:37:15.847Z,100921.84
2023-02-20T19:40:27.367Z,100918.04
2023-02-20T19:43:23.752Z,100912.09
2023-02-20T19:46:12.720Z,100905.17
2023-02-20T19:49:21.592Z,100895.82
2023-02-20T19:52:37.003Z,100895.32
2023-02-20T19:55:46.265Z,100890.67
2023-02-20T19:59:14.370Z,100889.10
2023-02-20T20:02:25.165Z,100888.11
2023-02-20T20:05:34.323Z,100879.44
2023-02-20T20:08:23.602Z,100886.98
2023-02-20T20:11:35.187Z,100887.45
2023-02-20T20:15:05.062Z,100887.18
2023-02-20T20:18:02.616Z,100881.43
2023-02-20T20:20:52.296Z,100878.09
2023-02-20T20:23:58.084Z,100874.88
2023-02-20T20:27:26.520Z,100878.98
2023-02-20T20:30:54.658Z,100873.83
2023-02-20T20:34:06.988Z,100875.17
2023-02-20T20:37:17.100Z,100872.04
2023-02-20T20:40:45.237Z,100869.27
2023-02-20T20:43:54.622Z,100872.83
2023-02-20T20:47:03.797Z,100866.44
2023-02-20T20:50:14.213Z,100863.70
2023-02-20T20:53:42.415Z,100858.30
2023-02-20T20:56:58.068Z,100854.73
2023-02-20T21:00:26.514Z,100848.73
2023-02-20T21:03:54.390Z,100840.67
2023-02-20T21:07:22.672Z,100835.86
2023-02-20T21:10:01.506Z,100837.54
2023-02-20T21:12:59.047Z,100831.65
2023-02-20T21:16:07.852Z,100827.00
2023-02-20T21:19:35.552Z,100830.34
2023-02-20T21:23:03.536Z,100831.13
2023-02-20T21:26:31.774Z,100824.45
2023-02-20T21:29:24.193Z,100823.36
2023-02-20T21:32:14.184Z,100824.23
2023-02-20T21:35:03.059Z,100820.58
2023-02-20T21:37:41.374Z,100818.11
2023-02-20T21:40:51.036Z,100819.61
2023-02-20T21:43:58.965Z,100809.79
2023-02-20T21:46:51.100Z,100804.93
2023-02-20T21:50:18.900Z,100801.20
2023-02-20T21:53:46.651Z,100797.14
2023-02-20T21:56:55.371Z,100787.77
2023-02-20T22:00:05.426Z,100787.58
2023-02-20T22:03:29.688Z,100778.91
2023-02-20T22:06:46.076Z,100776.09
2023-02-20T22:10:13.916Z,100771.54
2023-02-20T22:13:05.925Z,100769.10
2023-02-20T22:15:56.066Z,100764.21
2023-02-20T22:19:23.793Z,100757.79
2023-02-20T22:22:52.261Z,100758.22
2023-02-20T22:26:20.522Z,100752.08
2023-02-20T22:29:28.563Z,100747.23
2023-02-20T22:32:37.246Z,100749.02
2023-02-20T22:35:49.281Z,100742.16
2023-02-20T22:39:18.761Z,100731.01
2023-02-20T22:42:46.711Z,100721.43
2023-02-20T22:46:15.093Z,100715.75
2023-02-20T22:49:31.121Z,100706.52
2023-02-20T22:52:40.025Z,100716.55
2023-02-20T22:56:08.060Z,100710.43
2023-02-20T22:59:16.545Z,100714.27
2023-02-20T23:02:28.928Z,100709.42
2023-02-20T23:06:00.490Z,100709.09
2023-02-20T23:09:25.123Z,100707.08
2023-02-20T23:12:32.862Z,100697.48
2023-02-20T23:16:00.942Z,100693.27
2023-02-20T23:19:29.199Z,100688.55
2023-02-20T23:22:56.582Z,100688.95
2023-02-20T23:26:25.081Z,100680.70
2023-02-20T23:29:37.385Z,100675.27
2023-02-20T23:33:05.461Z,100669.50
2023-02-20T23:36:33.347Z,100668.88
2023-02-20T23:40:01.140Z,100672.55
2023-02-20T23:43:13.079Z,100663.91
2023-02-20T23:46:41.041Z,100661.34
2023-02-20T23:50:08.818Z,100653.74
2023-02-20T23:53:36.924Z,100657.55
2023-02-20T23:56:45.038Z,100652.79
2023-02-20T23:59:53.668Z,100652.19
